createdAt,value
2019-02-28T00:00:17.706Z,5.90
2019-02-28T00:02:46.279Z,5.80
2019-02-28T00:05:14.906Z,5.80
2019-02-28T00:07:43.503Z,5.80
2019-02-28T00:10:12.031Z,5.80
2019-02-28T00:12:40.607Z,5.80
2019-02-28T00:15:09.799Z,5.80
2019-02-28T00:17:42.585Z,5.70
2019-02-28T00:20:09.511Z,5.70
2019-02-28T00:22:38.086Z,5.70
2019-02-28T00:25:08.583Z,5.70
2019-02-28T00:27:37.165Z,5.70
2019-02-28T00:30:11.700Z,5.70
2019-02-28T00:32:40.275Z,5.80
2019-02-28T00:35:12.945Z,5.80
2019-02-28T00:37:39.494Z,5.80
2019-02-28T00:40:09.987Z,5.80
2019-02-28T00:42:38.564Z,5.90
2019-02-28T00:45:16.618Z,5.90
2019-02-28T00:47:47.544Z,6.00
2019-02-28T00:50:15.391Z,6.00
2019-02-28T00:52:43.962Z,6.10
2019-02-28T00:55:14.741Z,6.10
2019-02-28T00:57:44.045Z,6.10
2019-02-28T01:00:17.951Z,6.10
2019-02-28T01:02:51.890Z,6.10
2019-02-28T01:05:16.862Z,6.20
2019-02-28T01:07:48.108Z,6.20
2019-02-28T01:10:15.638Z,6.20
2019-02-28T01:12:44.210Z,6.20
2019-02-28T01:15:17.558Z,6.30
2019-02-28T01:17:46.367Z,6.30
2019-02-28T01:20:16.429Z,6.30
2019-02-28T01:22:45.232Z,6.40
2019-02-28T01:25:18.156Z,6.40
2019-02-28T01:27:46.866Z,6.40
2019-02-28T01:30:16.361Z,6.40
2019-02-28T01:32:49.874Z,6.50
2019-02-28T01:35:15.270Z,6.40
2019-02-28T01:37:43.924Z,6.50
2019-02-28T01:40:14.116Z,6.50
2019-02-28T01:42:42.691Z,6.50
2019-02-28T01:45:14.607Z,6.50
2019-02-28T01:47:43.187Z,6.50
2019-02-28T01:50:12.867Z,6.50
2019-02-28T01:52:45.994Z,6.50
2019-02-28T01:55:11.887Z,6.40
2019-02-28T01:57:44.064Z,6.40
2019-02-28T02:00:13.609Z,6.40
2019-02-28T02:02:42.182Z,6.50
2019-02-28T02:05:10.807Z,6.40
2019-02-28T02:07:39.386Z,6.40
2019-02-28T02:10:21.433Z,6.40
2019-02-28T02:12:51.170Z,6.40
2019-02-28T02:15:20.159Z,6.40
2019-02-28T02:17:48.739Z,6.40
2019-02-28T02:20:17.737Z,6.40
2019-02-28T02:22:46.315Z,6.40
2019-02-28T02:25:15.020Z,6.40
2019-02-28T02:27:43.582Z,6.40
2019-02-28T02:30:15.927Z,6.40
2019-02-28T02:32:45.224Z,6.50
2019-02-28T02:35:13.787Z,6.50
2019-02-28T02:37:42.413Z,6.50
2019-02-28T02:40:15.845Z,6.60
2019-02-28T02:42:48.439Z,6.60
2019-02-28T02:45:15.281Z,6.70
2019-02-28T02:47:43.803Z,6.70
2019-02-28T02:50:14.373Z,6.80
2019-02-28T02:52:43.188Z,6.90
2019-02-28T02:55:11.886Z,6.90
2019-02-28T02:57:40.455Z,7.00
2019-02-28T03:00:16.678Z,7.00
2019-02-28T03:02:45.590Z,7.00
2019-02-28T03:05:14.888Z,7.10
2019-02-28T03:07:43.533Z,7.10
2019-02-28T03:10:17.306Z,7.20
2019-02-28T03:12:44.823Z,7.20
2019-02-28T03:15:25.277Z,7.20
2019-02-28T03:17:48.747Z,7.20
2019-02-28T03:20:17.671Z,7.20
2019-02-28T03:22:46.235Z,7.20
2019-02-28T03:25:17.959Z,7.30
2019-02-28T03:27:46.533Z,7.30
2019-02-28T03:30:27.675Z,7.30
2019-02-28T03:32:49.536Z,7.30
2019-02-28T03:35:18.100Z,7.30
2019-02-28T03:37:46.674Z,7.30
2019-02-28T03:40:16.074Z,7.30
2019-02-28T03:42:44.658Z,7.30
2019-02-28T03:45:17.617Z,7.30
2019-02-28T03:47:46.201Z,7.30
2019-02-28T03:50:14.811Z,7.30
2019-02-28T03:52:44.677Z,7.30
2019-02-28T03:55:14.419Z,7.30
2019-02-28T03:57:43.169Z,7.30
2019-02-28T04:00:19.516Z,7.30
2019-02-28T04:02:48.091Z,7.30
2019-02-28T04:05:16.642Z,7.30
2019-02-28T04:07:52.912Z,7.30
2019-02-28T04:10:16.675Z,7.30
2019-02-28T04:12:47.081Z,7.30
2019-02-28T04:15:19.873Z,7.30
2019-02-28T04:17:48.543Z,7.30
2019-02-28T04:20:17.159Z,7.30
2019-02-28T04:22:45.739Z,7.30
2019-02-28T04:25:14.328Z,7.30
2019-02-28T04:27:42.902Z,7.30
2019-02-28T04:30:12.991Z,7.30
2019-02-28T04:32:41.618Z,7.30
2019-02-28T04:35:10.930Z,7.30
2019-02-28T04:37:44.874Z,7.20
2019-02-28T04:40:11.616Z,7.20
2019-02-28T04:42:40.175Z,7.20
2019-02-28T04:45:13.238Z,7.20
2019-02-28T04:47:41.935Z,7.20
2019-02-28T04:50:14.242Z,7.10
2019-02-28T04:52:47.117Z,7.10
2019-02-28T04:55:13.028Z,7.10
2019-02-28T04:57:41.585Z,7.10
2019-02-28T05:00:19.013Z,7.00
2019-02-28T05:02:47.565Z,7.00
2019-02-28T05:05:16.142Z,7.00
2019-02-28T05:07:44.698Z,7.00
2019-02-28T05:10:13.353Z,7.00
2019-02-28T05:12:41.985Z,6.90
2019-02-28T05:15:16.809Z,6.90
2019-02-28T05:17:48.091Z,6.90
2019-02-28T05:20:16.670Z,6.90
2019-02-28T05:22:45.225Z,6.80
2019-02-28T05:25:17.374Z,6.90
2019-02-28T05:27:44.015Z,6.80
2019-02-28T05:30:18.032Z,6.80
2019-02-28T05:32:44.534Z,6.80
2019-02-28T05:35:13.294Z,6.80
2019-02-28T05:37:46.697Z,6.70
2019-02-28T05:40:14.386Z,6.70
2019-02-28T05:42:42.958Z,6.70
2019-02-28T05:45:14.810Z,6.60
2019-02-28T05:47:46.147Z,6.60
2019-02-28T05:50:16.651Z,6.60
2019-02-28T05:52:43.439Z,6.60
2019-02-28T05:55:12.089Z,6.60
2019-02-28T05:57:43.442Z,6.60
2019-02-28T06:00:14.854Z,6.60
2019-02-28T06:02:43.415Z,6.60
2019-02-28T06:05:12.794Z,6.60
2019-02-28T06:07:41.454Z,6.60
2019-02-28T06:10:12.073Z,6.60
2019-02-28T06:12:43.751Z,6.60
2019-02-28T06:15:12.803Z,6.60
2019-02-28T06:17:41.430Z,6.60
2019-02-28T06:20:11.451Z,6.60
2019-02-28T06:22:40.017Z,6.60
2019-02-28T06:25:11.006Z,6.60
2019-02-28T06:27:41.943Z,6.60
2019-02-28T06:30:14.742Z,6.70
2019-02-28T06:32:43.290Z,6.70
2019-02-28T06:35:15.982Z,6.70
2019-02-28T06:37:42.218Z,6.70
2019-02-28T06:40:15.997Z,6.70
2019-02-28T06:42:46.914Z,6.70
2019-02-28T06:45:19.270Z,6.70
2019-02-28T06:47:49.646Z,6.70
2019-02-28T06:50:18.037Z,6.70
2019-02-28T06:52:46.607Z,6.70
2019-02-28T06:55:25.982Z,6.70
2019-02-28T06:57:54.542Z,6.70
2019-02-28T07:00:23.186Z,6.80
2019-02-28T07:02:51.747Z,6.80
2019-02-28T07:05:24.628Z,6.80
2019-02-28T07:07:50.602Z,6.80
2019-02-28T07:10:19.229Z,6.80
2019-02-28T07:12:47.743Z,6.80
2019-02-28T07:15:16.322Z,6.90
2019-02-28T07:17:46.570Z,6.90
2019-02-28T07:20:19.588Z,6.90
2019-02-28T07:22:48.138Z,6.90
2019-02-28T07:25:16.718Z,7.00
2019-02-28T07:27:45.278Z,7.00
2019-02-28T07:30:18.419Z,7.00
2019-02-28T07:32:47.212Z,7.10
2019-02-28T07:35:15.804Z,7.10
2019-02-28T07:37:44.364Z,7.20
2019-02-28T07:40:17.355Z,7.30
2019-02-28T07:42:46.376Z,7.30
2019-02-28T07:45:15.857Z,7.30
2019-02-28T07:47:44.567Z,7.40
2019-02-28T07:50:14.894Z,7.40
2019-02-28T07:52:43.592Z,7.40
2019-02-28T07:55:20.166Z,7.50
2019-02-28T07:57:54.291Z,7.60
2019-02-28T08:00:20.441Z,7.60
2019-02-28T08:02:49.028Z,7.70
2019-02-28T08:05:17.759Z,7.80
2019-02-28T08:07:51.855Z,7.90
2019-02-28T08:10:28.666Z,8.00
2019-02-28T08:12:57.222Z,8.00
2019-02-28T08:15:27.016Z,8.10
2019-02-28T08:17:55.647Z,8.20
2019-02-28T08:20:24.301Z,8.20
2019-02-28T08:22:56.534Z,8.30
2019-02-28T08:25:23.234Z,8.30
2019-02-28T08:27:51.798Z,8.40
2019-02-28T08:30:31.092Z,8.50
2019-02-28T08:32:59.654Z,8.50
2019-02-28T08:35:33.933Z,8.60
2019-02-28T08:37:58.441Z,8.60
2019-02-28T08:40:27.968Z,8.70
2019-02-28T08:42:56.658Z,8.70
2019-02-28T08:45:25.170Z,8.80
2019-02-28T08:47:56.715Z,8.80
2019-02-28T08:50:24.921Z,8.90
2019-02-28T08:53:01.463Z,8.90
2019-02-28T08:55:30.116Z,9.00
2019-02-28T08:58:05.139Z,9.10
2019-02-28T09:00:32.570Z,9.10
2019-02-28T09:03:00.826Z,9.20
2019-02-28T09:05:30.255Z,9.30
2019-02-28T09:07:58.989Z,9.40
2019-02-28T09:10:27.712Z,9.40
2019-02-28T09:12:56.275Z,9.50
2019-02-28T09:15:30.188Z,9.60
2019-02-28T09:17:58.212Z,9.70
2019-02-28T09:20:25.350Z,9.80
2019-02-28T09:22:53.906Z,9.90
2019-02-28T09:25:26.988Z,10.00
2019-02-28T09:27:55.757Z,10.20
2019-02-28T09:30:41.826Z,10.30
2019-02-28T09:33:10.381Z,10.40
2019-02-28T09:35:39.036Z,10.60
2019-02-28T09:38:13.226Z,10.60
2019-02-28T09:40:37.841Z,10.70
2019-02-28T09:43:06.403Z,10.80
2019-02-28T09:45:35.357Z,10.90
2019-02-28T09:48:03.994Z,10.90
2019-02-28T09:50:33.341Z,11.10
2019-02-28T09:53:01.948Z,11.20
2019-02-28T09:55:34.074Z,11.30
2019-02-28T09:58:00.737Z,11.40
2019-02-28T10:00:30.246Z,11.60
2019-02-28T10:02:58.867Z,11.70
2019-02-28T10:05:27.466Z,11.90
2019-02-28T10:08:01.631Z,12.10
2019-02-28T10:10:28.095Z,12.20
2019-02-28T10:12:56.959Z,12.40
2019-02-28T10:15:26.577Z,12.50
2019-02-28T10:17:55.170Z,12.70
2019-02-28T10:20:31.543Z,12.80
2019-02-28T10:23:00.103Z,12.90
2019-02-28T10:25:28.664Z,13.00
2019-02-28T10:28:01.608Z,12.90
2019-02-28T10:30:32.085Z,13.00
2019-02-28T10:32:58.703Z,13.00
2019-02-28T10:35:27.266Z,13.10
2019-02-28T10:37:58.399Z,13.10
2019-02-28T10:40:28.276Z,13.20
2019-02-28T10:42:56.937Z,13.30
2019-02-28T10:45:26.208Z,13.30
2019-02-28T10:47:54.795Z,13.40
2019-02-28T10:50:26.000Z,13.50
2019-02-28T10:52:54.655Z,13.50
2019-02-28T10:55:23.390Z,13.60
2019-02-28T10:57:52.123Z,13.60
2019-02-28T11:00:32.933Z,13.60
2019-02-28T11:03:02.664Z,13.70
2019-02-28T11:05:33.173Z,13.80
2019-02-28T11:08:02.495Z,13.90
2019-02-28T11:10:35.648Z,14.00
2019-02-28T11:13:04.665Z,14.10
2019-02-28T11:15:33.287Z,14.20
2019-02-28T11:18:01.876Z,14.20
2019-02-28T11:20:30.583Z,14.40
2019-02-28T11:22:59.168Z,14.50
2019-02-28T11:25:28.155Z,14.60
2019-02-28T11:27:56.740Z,14.70
2019-02-28T11:30:27.445Z,14.80
2019-02-28T11:32:56.097Z,14.90
2019-02-28T11:35:25.211Z,15.00
2019-02-28T11:37:53.934Z,15.00
2019-02-28T11:40:24.922Z,15.00
2019-02-28T11:42:53.664Z,15.00
2019-02-28T11:45:27.899Z,15.10
2019-02-28T11:47:58.430Z,15.00
2019-02-28T11:50:26.990Z,15.00
2019-02-28T11:52:55.575Z,14.90
2019-02-28T11:55:24.206Z,14.90
2019-02-28T11:57:53.027Z,14.90
2019-02-28T12:00:27.365Z,14.90
2019-02-28T12:02:59.914Z,14.80
2019-02-28T12:05:26.538Z,14.80
2019-02-28T12:07:55.265Z,14.80
2019-02-28T12:10:26.995Z,14.80
2019-02-28T12:12:56.366Z,14.80
2019-02-28T12:15:29.799Z,14.80
2019-02-28T12:18:03.505Z,14.80
2019-02-28T12:20:28.603Z,14.70
2019-02-28T12:22:57.184Z,14.70
2019-02-28T12:25:26.009Z,14.70
2019-02-28T12:27:55.264Z,14.70
2019-02-28T12:30:26.664Z,14.70
2019-02-28T12:32:55.243Z,14.70
2019-02-28T12:35:23.806Z,14.70
2019-02-28T12:37:53.943Z,14.60
2019-02-28T12:40:25.871Z,14.60
2019-02-28T12:42:54.438Z,14.60
2019-02-28T12:45:34.699Z,14.60
2019-02-28T12:48:03.277Z,14.60
2019-02-28T12:50:31.915Z,14.60
2019-02-28T12:53:00.500Z,14.50
2019-02-28T12:55:29.132Z,14.60
2019-02-28T12:57:58.585Z,14.60
2019-02-28T13:00:30.354Z,14.60
2019-02-28T13:02:58.983Z,14.60
2019-02-28T13:05:27.511Z,14.60
2019-02-28T13:07:56.098Z,14.60
2019-02-28T13:10:28.016Z,14.60
2019-02-28T13:13:05.239Z,14.60
2019-02-28T13:15:25.514Z,14.60
2019-02-28T13:17:54.166Z,14.60
2019-02-28T13:20:32.201Z,14.50
2019-02-28T13:22:59.252Z,14.50
2019-02-28T13:25:28.945Z,14.50
2019-02-28T13:27:57.607Z,14.50
2019-02-28T13:30:27.402Z,14.50
2019-02-28T13:32:56.247Z,14.50
2019-02-28T13:35:27.390Z,14.50
2019-02-28T13:37:56.023Z,14.50
2019-02-28T13:40:24.535Z,14.50
2019-02-28T13:42:53.122Z,14.50
2019-02-28T13:45:23.735Z,14.40
2019-02-28T13:47:52.623Z,14.50
2019-02-28T13:50:27.134Z,14.50
2019-02-28T13:52:55.844Z,14.50
2019-02-28T13:55:24.470Z,14.50
2019-02-28T13:57:53.063Z,14.40
2019-02-28T14:00:29.830Z,14.40
2019-02-28T14:03:00.368Z,14.40
2019-02-28T14:05:28.924Z,14.30
2019-02-28T14:07:57.509Z,14.30
2019-02-28T14:10:29.550Z,14.30
2019-02-28T14:12:57.985Z,14.20
2019-02-28T14:15:41.402Z,14.20
2019-02-28T14:18:10.933Z,14.20
2019-02-28T14:20:40.130Z,14.10
2019-02-28T14:23:09.075Z,14.10
2019-02-28T14:25:39.784Z,14.10
2019-02-28T14:28:07.948Z,14.10
2019-02-28T14:30:36.502Z,14.00
2019-02-28T14:33:05.318Z,14.00
2019-02-28T14:35:35.171Z,14.00
2019-02-28T14:38:04.500Z,13.90
2019-02-28T14:40:33.058Z,13.90
2019-02-28T14:43:01.643Z,13.90
2019-02-28T14:45:39.045Z,13.80
2019-02-28T14:48:06.498Z,13.80
2019-02-28T14:50:35.063Z,13.80
2019-02-28T14:53:03.719Z,13.80
2019-02-28T14:55:32.611Z,13.70
2019-02-28T14:58:02.202Z,13.70
2019-02-28T15:00:32.380Z,13.60
2019-02-28T15:03:02.850Z,13.60
2019-02-28T15:05:35.182Z,13.50
2019-02-28T15:08:03.846Z,13.50
2019-02-28T15:10:34.273Z,13.40
2019-02-28T15:13:04.785Z,13.40
2019-02-28T15:15:33.138Z,13.30
2019-02-28T15:18:01.730Z,13.30
2019-02-28T15:20:32.777Z,13.20
2019-02-28T15:23:00.599Z,13.10
2019-02-28T15:25:30.303Z,13.10
2019-02-28T15:27:58.885Z,13.00
2019-02-28T15:30:35.422Z,13.00
2019-02-28T15:33:04.148Z,12.90
2019-02-28T15:35:32.783Z,12.80
2019-02-28T15:38:01.366Z,12.70
2019-02-28T15:40:35.559Z,12.70
2019-02-28T15:43:04.212Z,12.60
2019-02-28T15:45:36.138Z,12.60
2019-02-28T15:48:03.007Z,12.50
2019-02-28T15:50:31.647Z,12.50
2019-02-28T15:53:00.474Z,12.40
2019-02-28T15:55:29.430Z,12.40
2019-02-28T15:57:58.000Z,12.40
2019-02-28T16:00:28.728Z,12.30
2019-02-28T16:02:57.619Z,12.30
2019-02-28T16:05:26.299Z,12.30
2019-02-28T16:07:55.578Z,12.20
2019-02-28T16:10:32.957Z,12.20
2019-02-28T16:13:02.023Z,12.20
2019-02-28T16:15:30.678Z,12.10
2019-02-28T16:17:59.382Z,12.10
2019-02-28T16:20:28.467Z,12.00
2019-02-28T16:22:58.314Z,12.00
2019-02-28T16:25:32.139Z,11.90
2019-02-28T16:28:00.761Z,11.90
2019-02-28T16:30:32.152Z,11.90
2019-02-28T16:32:59.970Z,11.80
2019-02-28T16:35:29.111Z,11.70
2019-02-28T16:37:57.715Z,11.70
2019-02-28T16:40:32.526Z,11.70
2019-02-28T16:43:01.098Z,11.60
2019-02-28T16:45:31.951Z,11.50
2019-02-28T16:48:03.011Z,11.50
2019-02-28T16:50:31.715Z,11.50
2019-02-28T16:53:00.456Z,11.50
2019-02-28T16:55:30.917Z,11.50
2019-02-28T16:57:59.254Z,11.50
2019-02-28T17:00:28.079Z,11.40
2019-02-28T17:02:56.643Z,11.40
2019-02-28T17:05:28.015Z,11.30
2019-02-28T17:07:55.542Z,11.30
2019-02-28T17:10:40.228Z,11.30
2019-02-28T17:13:23.225Z,11.20
2019-02-28T17:16:01.822Z,11.20
2019-02-28T17:18:34.190Z,11.10
2019-02-28T17:21:02.838Z,11.10
2019-02-28T17:23:33.639Z,11.10
2019-02-28T17:26:01.739Z,11.00
2019-02-28T17:28:51.032Z,11.00
2019-02-28T17:31:33.515Z,10.90
2019-02-28T17:34:02.165Z,10.90
2019-02-28T17:36:30.802Z,10.90
2019-02-28T17:38:59.390Z,10.90
2019-02-28T17:41:27.955Z,10.80
2019-02-28T17:44:25.263Z,10.80
2019-02-28T17:47:00.588Z,10.80
2019-02-28T17:50:05.377Z,10.70
2019-02-28T17:52:55.287Z,10.70
2019-02-28T17:55:48.722Z,10.60
2019-02-28T17:58:38.193Z,10.60
2019-02-28T18:01:18.501Z,10.50
2019-02-28T18:04:20.899Z,10.50
2019-02-28T18:07:20.111Z,10.50
2019-02-28T18:09:57.319Z,10.40
2019-02-28T18:12:47.091Z,10.40
2019-02-28T18:15:30.522Z,10.40
2019-02-28T18:18:20.246Z,10.30
2019-02-28T18:21:00.714Z,10.30
2019-02-28T18:23:33.705Z,10.30
2019-02-28T18:26:08.210Z,10.30
2019-02-28T18:28:58.830Z,10.20
2019-02-28T18:31:27.539Z,10.20
2019-02-28T18:33:58.349Z,10.20
2019-02-28T18:36:29.278Z,10.10
2019-02-28T18:38:57.842Z,10.10
2019-02-28T18:41:26.431Z,10.10
2019-02-28T18:43:54.994Z,10.10
2019-02-28T18:46:23.577Z,10.10
2019-02-28T18:48:54.285Z,10.00
2019-02-28T18:51:22.366Z,10.00
2019-02-28T18:53:50.936Z,10.00
2019-02-28T18:56:19.518Z,10.00
2019-02-28T18:58:48.080Z,9.90
2019-02-28T19:01:16.727Z,9.90
2019-02-28T19:03:45.286Z,9.90
2019-02-28T19:06:13.870Z,9.90
2019-02-28T19:08:42.431Z,9.80
2019-02-28T19:11:11.093Z,9.80
2019-02-28T19:13:39.649Z,9.70
2019-02-28T19:16:08.226Z,9.70
2019-02-28T19:18:36.782Z,9.70
2019-02-28T19:21:05.425Z,9.70
2019-02-28T19:23:33.990Z,9.60
2019-02-28T19:26:02.571Z,9.60
2019-02-28T19:28:31.126Z,9.50
2019-02-28T19:30:59.951Z,9.50
2019-02-28T19:33:28.512Z,9.50
2019-02-28T19:35:57.086Z,9.40
2019-02-28T19:38:25.642Z,9.40
2019-02-28T19:40:54.227Z,9.40
2019-02-28T19:43:22.791Z,9.40
2019-02-28T19:45:54.720Z,9.30
2019-02-28T19:48:23.279Z,9.30
2019-02-28T19:50:51.863Z,9.30
2019-02-28T19:53:20.427Z,9.30
2019-02-28T19:55:49.006Z,9.30
2019-02-28T19:58:17.567Z,9.20
2019-02-28T20:00:46.150Z,9.20
2019-02-28T20:03:14.715Z,9.20
2019-02-28T20:05:43.363Z,9.10
2019-02-28T20:08:11.919Z,9.10
2019-02-28T20:10:40.566Z,9.10
2019-02-28T20:13:09.189Z,9.10
2019-02-28T20:15:41.783Z,9.10
2019-02-28T20:18:11.202Z,9.00
2019-02-28T20:20:39.826Z,9.00
2019-02-28T20:23:08.413Z,9.00
2019-02-28T20:25:37.107Z,9.00
2019-02-28T20:28:05.753Z,8.90
2019-02-28T20:30:34.381Z,8.90
2019-02-28T20:33:02.963Z,8.90
2019-02-28T20:35:31.594Z,8.90
2019-02-28T20:38:00.172Z,8.90
2019-02-28T20:40:30.768Z,8.90
2019-02-28T20:42:59.347Z,8.80
2019-02-28T20:45:27.910Z,8.80
2019-02-28T20:47:57.589Z,8.80
2019-02-28T20:50:32.166Z,8.80
2019-02-28T20:53:00.814Z,8.80
2019-02-28T20:55:29.375Z,8.80
2019-02-28T20:57:57.957Z,8.70
2019-02-28T21:00:28.089Z,8.70
2019-02-28T21:02:56.669Z,8.70
2019-02-28T21:05:25.231Z,8.70
2019-02-28T21:07:53.812Z,8.70
2019-02-28T21:10:22.504Z,8.70
2019-02-28T21:12:51.083Z,8.60
2019-02-28T21:15:19.636Z,8.60
2019-02-28T21:17:48.214Z,8.50
2019-02-28T21:20:17.350Z,8.50
2019-02-28T21:22:45.917Z,8.40
2019-02-28T21:25:17.550Z,8.40
2019-02-28T21:27:46.130Z,8.40
2019-02-28T21:30:25.212Z,8.40
2019-02-28T21:32:53.799Z,8.30
2019-02-28T21:35:23.894Z,8.30
2019-02-28T21:37:52.469Z,8.30
2019-02-28T21:42:48.271Z,8.30
2019-02-28T21:45:19.230Z,8.30
2019-02-28T21:47:47.820Z,8.30
2019-02-28T21:50:17.734Z,8.30
2019-02-28T21:52:46.575Z,8.30
2019-02-28T21:55:16.290Z,8.30
2019-02-28T21:57:44.999Z,8.30
2019-02-28T22:00:24.996Z,8.30
2019-02-28T22:02:53.914Z,8.30
2019-02-28T22:05:22.539Z,8.30
2019-02-28T22:07:51.258Z,8.40
2019-02-28T22:10:19.824Z,8.40
2019-02-28T22:12:48.468Z,8.40
2019-02-28T22:15:19.436Z,8.40
2019-02-28T22:17:48.021Z,8.40
2019-02-28T22:20:16.572Z,8.40
2019-02-28T22:22:45.154Z,8.40
2019-02-28T22:25:15.056Z,8.50
2019-02-28T22:27:43.626Z,8.50
2019-02-28T22:30:22.092Z,8.50
2019-02-28T22:32:52.310Z,8.50
2019-02-28T22:35:22.514Z,8.50
2019-02-28T22:37:51.096Z,8.60
2019-02-28T22:40:19.666Z,8.60
2019-02-28T22:42:48.238Z,8.60
2019-02-28T22:45:16.796Z,8.60
2019-02-28T22:47:45.369Z,8.60
2019-02-28T22:50:14.071Z,8.70
2019-02-28T22:52:42.653Z,8.60
2019-02-28T22:55:11.273Z,8.70
2019-02-28T22:57:39.873Z,8.70
2019-02-28T23:00:34.094Z,8.70
2019-02-28T23:03:02.754Z,8.70
2019-02-28T23:05:31.303Z,8.70
2019-02-28T23:07:59.882Z,8.70
2019-02-28T23:10:28.435Z,8.80
2019-02-28T23:12:57.022Z,8.80
2019-02-28T23:15:25.580Z,8.80
2019-02-28T23:17:54.162Z,8.80
2019-02-28T23:20:22.719Z,8.80
2019-02-28T23:22:51.300Z,8.80
2019-02-28T23:25:19.860Z,8.80
2019-02-28T23:27:48.443Z,8.80
2019-02-28T23:30:37.626Z,8.80
2019-02-28T23:33:06.270Z,8.90
2019-02-28T23:35:35.365Z,8.90
2019-02-28T23:38:04.118Z,8.90
2019-02-28T23:40:32.673Z,8.90
2019-02-28T23:43:01.257Z,8.90
2019-02-28T23:45:29.822Z,8.90
2019-02-28T23:47:58.402Z,8.90
2019-02-28T23:50:26.966Z,8.90
2019-02-28T23:52:55.551Z,8.90
2019-02-28T23:55:24.111Z,8.80
2019-02-28T23:57:52.691Z,8.80
